createdAt,value
2017-07-08T00:00:01.641Z,943.41
2017-07-08T00:00:29.738Z,943.47
2017-07-08T00:00:57.885Z,943.45
2017-07-08T00:01:25.902Z,943.43
2017-07-08T00:01:53.846Z,943.43
2017-07-08T00:02:21.871Z,943.42
2017-07-08T00:02:49.784Z,943.47
2017-07-08T00:03:17.933Z,943.47
2017-07-08T00:03:46.049Z,943.48
2017-07-08T00:04:14.085Z,943.45
2017-07-08T00:04:42.005Z,943.46
2017-07-08T00:05:10.015Z,943.47
2017-07-08T00:05:38.035Z,943.43
2017-07-08T00:06:05.960Z,943.43
2017-07-08T00:06:34.086Z,943.43
2017-07-08T00:07:02.099Z,943.45
2017-07-08T00:07:30.118Z,943.43
2017-07-08T00:07:58.129Z,943.41
2017-07-08T00:08:26.155Z,943.43
2017-07-08T00:08:54.270Z,943.44
2017-07-08T00:09:22.287Z,943.46
2017-07-08T00:09:50.417Z,943.42
2017-07-08T00:10:18.465Z,943.43
2017-07-08T00:10:46.613Z,943.42
2017-07-08T00:11:14.758Z,943.43
2017-07-08T00:11:42.800Z,943.45
2017-07-08T00:12:10.827Z,943.45
2017-07-08T00:12:38.744Z,943.44
2017-07-08T00:13:06.654Z,943.47
2017-07-08T00:13:34.558Z,943.44
2017-07-08T00:14:02.710Z,943.46
2017-07-08T00:14:30.838Z,943.49
2017-07-08T00:14:58.830Z,943.44
2017-07-08T00:15:26.929Z,943.5
2017-07-08T00:15:54.928Z,943.46
2017-07-08T00:16:22.838Z,943.47
2017-07-08T00:16:50.863Z,943.47
2017-07-08T00:17:18.784Z,943.51
2017-07-08T00:17:46.566Z,943.5
2017-07-08T00:18:14.498Z,943.46
2017-07-08T00:18:42.591Z,943.47
2017-07-08T00:19:10.601Z,943.52
2017-07-08T00:19:38.633Z,943.5
2017-07-08T00:20:06.817Z,943.51
2017-07-08T00:20:34.617Z,943.51
2017-07-08T00:21:02.735Z,943.53
2017-07-08T00:21:30.756Z,943.54
2017-07-08T00:21:58.889Z,943.55
2017-07-08T00:22:26.727Z,943.53
2017-07-08T00:22:54.652Z,943.57
2017-07-08T00:23:22.504Z,943.57
2017-07-08T00:23:50.535Z,943.63
2017-07-08T00:24:18.459Z,943.61
2017-07-08T00:24:46.585Z,943.59
2017-07-08T00:25:14.535Z,943.62
2017-07-08T00:25:42.614Z,943.6
2017-07-08T00:26:10.631Z,943.59
2017-07-08T00:26:38.651Z,943.59
2017-07-08T00:27:06.720Z,943.6
2017-07-08T00:27:34.817Z,943.6
2017-07-08T00:28:02.714Z,943.61
2017-07-08T00:28:30.738Z,943.59
2017-07-08T00:28:58.851Z,943.61
2017-07-08T00:29:26.862Z,943.61
2017-07-08T00:29:54.996Z,943.61
2017-07-08T00:30:22.975Z,943.65
2017-07-08T00:30:50.988Z,943.64
2017-07-08T00:31:19.622Z,943.58
2017-07-08T00:31:47.640Z,943.6
2017-07-08T00:32:15.765Z,943.61
2017-07-08T00:32:43.872Z,943.58
2017-07-08T00:33:11.884Z,943.6
2017-07-08T00:33:40.011Z,943.61
2017-07-08T00:34:08.156Z,943.66
2017-07-08T00:34:36.200Z,943.64
2017-07-08T00:35:04.313Z,943.66
2017-07-08T00:35:32.331Z,943.65
2017-07-08T00:36:00.369Z,943.64
2017-07-08T00:36:28.283Z,943.65
2017-07-08T00:36:56.294Z,943.68
2017-07-08T00:37:24.319Z,943.65
2017-07-08T00:37:52.461Z,943.67
2017-07-08T00:38:20.549Z,943.71
2017-07-08T00:38:48.582Z,943.7
2017-07-08T00:39:16.706Z,943.66
2017-07-08T00:39:44.616Z,943.66
2017-07-08T00:40:12.644Z,943.7
2017-07-08T00:40:40.626Z,943.7
2017-07-08T00:41:08.650Z,943.68
2017-07-08T00:41:36.570Z,943.7
2017-07-08T00:42:04.499Z,943.68
2017-07-08T00:42:32.520Z,943.67
2017-07-08T00:43:00.528Z,943.66
2017-07-08T00:43:28.657Z,943.7
2017-07-08T00:43:56.705Z,943.65
2017-07-08T00:44:24.731Z,943.7
2017-07-08T00:44:52.845Z,943.7
2017-07-08T00:45:20.977Z,943.69
2017-07-08T00:45:49.127Z,943.7
2017-07-08T00:46:17.117Z,943.69
2017-07-08T00:46:45.119Z,943.62
2017-07-08T00:47:13.134Z,943.66
2017-07-08T00:47:41.075Z,943.65
2017-07-08T00:48:08.982Z,943.64
2017-07-08T00:48:37.130Z,943.63
2017-07-08T00:49:05.161Z,943.62
2017-07-08T00:49:33.205Z,943.62
2017-07-08T00:50:01.236Z,943.61
2017-07-08T00:50:29.257Z,943.63
2017-07-08T00:50:57.371Z,943.6
2017-07-08T00:51:25.385Z,943.66
2017-07-08T00:51:53.520Z,943.63
2017-07-08T00:52:21.537Z,943.57
2017-07-08T00:52:49.702Z,943.6
2017-07-08T00:53:17.710Z,943.6
2017-07-08T00:53:45.842Z,943.65
2017-07-08T00:54:13.853Z,943.6
2017-07-08T00:54:41.887Z,943.62
2017-07-08T00:55:09.945Z,943.62
2017-07-08T00:55:37.946Z,943.59
2017-07-08T00:56:05.990Z,943.63
2017-07-08T00:56:33.798Z,943.63
2017-07-08T00:57:01.833Z,943.65
2017-07-08T00:57:29.967Z,943.66
2017-07-08T00:57:57.957Z,943.67
2017-07-08T00:58:26.004Z,943.65
2017-07-08T00:58:54.019Z,943.64
2017-07-08T00:59:22.157Z,943.67
2017-07-08T00:59:50.077Z,943.67
2017-07-08T01:00:18.118Z,943.67
2017-07-08T01:00:46.129Z,943.64
2017-07-08T01:01:14.231Z,943.63
2017-07-08T01:01:42.235Z,943.66
2017-07-08T01:02:10.263Z,943.65
2017-07-08T01:02:38.362Z,943.68
2017-07-08T01:03:06.494Z,943.67
2017-07-08T01:03:34.550Z,943.64
2017-07-08T01:04:02.582Z,943.69
2017-07-08T01:04:30.589Z,943.69
2017-07-08T01:04:58.489Z,943.67
2017-07-08T01:05:26.523Z,943.66
2017-07-08T01:05:54.650Z,943.7
2017-07-08T01:06:22.579Z,943.72
2017-07-08T01:06:50.587Z,943.65
2017-07-08T01:07:18.508Z,943.68
2017-07-08T01:07:46.634Z,943.7
2017-07-08T01:08:14.643Z,943.7
2017-07-08T01:08:42.749Z,943.71
2017-07-08T01:09:10.851Z,943.7
2017-07-08T01:09:38.812Z,943.71
2017-07-08T01:10:06.852Z,943.73
2017-07-08T01:10:34.985Z,943.71
2017-07-08T01:11:03.070Z,943.73
2017-07-08T01:11:31.225Z,943.72
2017-07-08T01:11:59.243Z,943.77
2017-07-08T01:12:27.269Z,943.74
2017-07-08T01:12:55.418Z,943.72
2017-07-08T01:13:23.529Z,943.71
2017-07-08T01:13:51.638Z,943.71
2017-07-08T01:14:19.581Z,943.72
2017-07-08T01:14:47.694Z,943.73
2017-07-08T01:15:15.714Z,943.75
2017-07-08T01:15:43.859Z,943.78
2017-07-08T01:16:11.794Z,943.75
2017-07-08T01:16:39.913Z,943.75
2017-07-08T01:17:07.824Z,943.76
2017-07-08T01:17:35.756Z,943.77
2017-07-08T01:18:03.781Z,943.76
2017-07-08T01:18:31.820Z,943.77
2017-07-08T01:18:59.760Z,943.82
2017-07-08T01:19:27.901Z,943.8
2017-07-08T01:19:56.026Z,943.81
2017-07-08T01:20:23.851Z,943.81
2017-07-08T01:20:51.951Z,943.79
2017-07-08T01:21:19.769Z,943.81
2017-07-08T01:21:47.790Z,943.83
2017-07-08T01:22:15.728Z,943.84
2017-07-08T01:22:43.521Z,943.83
2017-07-08T01:23:11.431Z,943.83
2017-07-08T01:23:39.343Z,943.86
2017-07-08T01:24:07.482Z,943.83
2017-07-08T01:24:35.496Z,943.81
2017-07-08T01:25:03.590Z,943.85
2017-07-08T01:25:31.623Z,943.84
2017-07-08T01:25:59.621Z,943.86
2017-07-08T01:26:27.533Z,943.9
2017-07-08T01:26:55.556Z,943.85
2017-07-08T01:27:23.665Z,943.85
2017-07-08T01:27:51.797Z,943.87
2017-07-08T01:28:19.944Z,943.85
2017-07-08T01:28:47.963Z,943.88
2017-07-08T01:29:15.999Z,943.87
2017-07-08T01:29:44.139Z,943.86
2017-07-08T01:30:12.256Z,943.89
2017-07-08T01:30:40.272Z,943.93
2017-07-08T01:31:08.377Z,943.92
2017-07-08T01:31:36.393Z,943.92
2017-07-08T01:32:04.515Z,943.91
2017-07-08T01:32:32.543Z,943.86
2017-07-08T01:33:00.572Z,943.9
2017-07-08T01:33:28.589Z,943.9
2017-07-08T01:33:56.735Z,943.93
2017-07-08T01:34:24.653Z,943.94
2017-07-08T01:34:52.789Z,943.96
2017-07-08T01:35:20.928Z,943.93
2017-07-08T01:35:48.930Z,943.94
2017-07-08T01:36:16.862Z,943.93
2017-07-08T01:36:44.873Z,943.92
2017-07-08T01:37:12.899Z,943.94
2017-07-08T01:37:40.920Z,943.96
2017-07-08T01:38:08.940Z,943.96
2017-07-08T01:38:36.954Z,943.94
2017-07-08T01:39:05.068Z,943.94
2017-07-08T01:39:33.001Z,943.93
2017-07-08T01:40:00.998Z,943.93
2017-07-08T01:40:28.939Z,943.93
2017-07-08T01:40:56.965Z,943.92
2017-07-08T01:41:25.085Z,943.93
2017-07-08T01:41:53.113Z,943.94
2017-07-08T01:42:21.233Z,943.93
2017-07-08T01:42:49.338Z,943.93
2017-07-08T01:43:17.410Z,943.94
2017-07-08T01:43:45.405Z,943.95
2017-07-08T01:44:13.518Z,943.94
2017-07-08T01:44:41.615Z,943.97
2017-07-08T01:45:09.644Z,943.93
2017-07-08T01:45:37.753Z,943.93
2017-07-08T01:46:05.786Z,943.95
2017-07-08T01:46:33.882Z,943.95
2017-07-08T01:47:02.028Z,943.96
2017-07-08T01:47:29.987Z,943.94
2017-07-08T01:47:57.797Z,943.98
2017-07-08T01:48:25.935Z,943.98
2017-07-08T01:48:53.918Z,943.97
2017-07-08T01:49:21.958Z,943.97
2017-07-08T01:49:49.893Z,943.97
2017-07-08T01:50:18.014Z,943.97
2017-07-08T01:50:46.137Z,943.94
2017-07-08T01:51:14.251Z,943.96
2017-07-08T01:51:42.499Z,943.99
2017-07-08T01:52:10.429Z,943.98
2017-07-08T01:52:38.442Z,943.97
2017-07-08T01:53:06.555Z,944.01
2017-07-08T01:53:34.612Z,944.01
2017-07-08T01:54:02.700Z,943.99
2017-07-08T01:54:30.834Z,944
2017-07-08T01:54:58.831Z,944.02
2017-07-08T01:55:26.737Z,944.03
2017-07-08T01:55:54.867Z,944.05
2017-07-08T01:56:22.793Z,944.04
2017-07-08T01:56:50.921Z,944.05
2017-07-08T01:57:18.941Z,944.02
2017-07-08T01:57:46.962Z,944.1
2017-07-08T01:58:15.103Z,944.06
2017-07-08T01:58:43.047Z,944.06
2017-07-08T01:59:11.066Z,944.08
2017-07-08T01:59:39.202Z,944.07
2017-07-08T02:00:07.315Z,944.06
2017-07-08T02:00:35.334Z,944.06
2017-07-08T02:01:03.463Z,944.07
2017-07-08T02:01:31.478Z,944.08
2017-07-08T02:01:59.507Z,944.08
2017-07-08T02:02:27.516Z,944.1
2017-07-08T02:02:55.655Z,944.09
2017-07-08T02:03:23.786Z,944.09
2017-07-08T02:03:51.924Z,944.13
2017-07-08T02:04:19.930Z,944.09
2017-07-08T02:04:47.755Z,944.15
2017-07-08T02:05:15.778Z,944.12
2017-07-08T02:05:43.784Z,944.1
2017-07-08T02:06:11.707Z,944.11
2017-07-08T02:06:39.847Z,944.08
2017-07-08T02:07:07.979Z,944.03
2017-07-08T02:07:35.910Z,944.06
2017-07-08T02:08:03.729Z,944.06
2017-07-08T02:08:31.466Z,944.08
2017-07-08T02:08:59.497Z,944.09
2017-07-08T02:09:27.410Z,944.04
2017-07-08T02:09:55.129Z,944.08
2017-07-08T02:10:23.231Z,944.09
2017-07-08T02:10:51.329Z,944.03
2017-07-08T02:11:19.274Z,944.03
2017-07-08T02:11:47.319Z,944.04
2017-07-08T02:12:15.254Z,944.09
2017-07-08T02:12:43.296Z,944.03
2017-07-08T02:13:11.427Z,944.06
2017-07-08T02:13:39.466Z,944.03
2017-07-08T02:14:07.444Z,944.04
2017-07-08T02:14:35.463Z,944.03
2017-07-08T02:15:03.363Z,944.01
2017-07-08T02:15:31.473Z,944
2017-07-08T02:15:59.506Z,944.01
2017-07-08T02:16:27.438Z,944.05
2017-07-08T02:16:55.545Z,943.97
2017-07-08T02:17:23.564Z,944.03
2017-07-08T02:17:51.595Z,943.98
2017-07-08T02:18:19.608Z,944
2017-07-08T02:18:48.012Z,943.97
2017-07-08T02:19:15.934Z,944
2017-07-08T02:19:43.982Z,943.99
2017-07-08T02:20:12.128Z,944.02
2017-07-08T02:20:40.163Z,944
2017-07-08T02:21:08.279Z,944
2017-07-08T02:21:36.332Z,944.01
2017-07-08T02:22:04.325Z,944
2017-07-08T02:22:32.153Z,943.97
2017-07-08T02:23:00.295Z,943.97
2017-07-08T02:23:28.005Z,943.93
2017-07-08T02:23:56.142Z,943.96
2017-07-08T02:24:24.139Z,943.96
2017-07-08T02:24:52.302Z,943.98
2017-07-08T02:25:20.301Z,944
2017-07-08T02:25:48.411Z,943.98
2017-07-08T02:26:16.535Z,943.98
2017-07-08T02:26:44.576Z,943.97
2017-07-08T02:27:12.612Z,943.99
2017-07-08T02:27:40.743Z,943.97
2017-07-08T02:28:08.640Z,943.96
2017-07-08T02:28:36.797Z,943.96
2017-07-08T02:29:04.916Z,944.02
2017-07-08T02:29:32.928Z,944.01
2017-07-08T02:30:00.941Z,943.96
2017-07-08T02:30:28.893Z,943.98
2017-07-08T02:30:56.724Z,943.97
2017-07-08T02:31:24.834Z,943.98
2017-07-08T02:31:52.857Z,943.97
2017-07-08T02:32:20.840Z,943.96
2017-07-08T02:32:48.976Z,943.95
2017-07-08T02:33:17.021Z,943.98
2017-07-08T02:33:44.931Z,943.9
2017-07-08T02:34:12.960Z,943.92
2017-07-08T02:34:41.065Z,943.9
2017-07-08T02:35:09.177Z,943.89
2017-07-08T02:35:37.090Z,943.93
2017-07-08T02:36:05.025Z,943.89
2017-07-08T02:36:33.035Z,943.94
2017-07-08T02:37:00.931Z,943.9
2017-07-08T02:37:28.938Z,943.92
2017-07-08T02:37:57.047Z,943.91
2017-07-08T02:38:25.053Z,943.89
2017-07-08T02:38:52.957Z,943.88
2017-07-08T02:39:20.962Z,943.92
2017-07-08T02:39:48.997Z,943.91
2017-07-08T02:40:17.121Z,943.94
2017-07-08T02:40:45.143Z,943.9
2017-07-08T02:41:13.225Z,943.91
2017-07-08T02:41:41.283Z,943.93
2017-07-08T02:42:09.286Z,943.88
2017-07-08T02:42:37.333Z,943.9
2017-07-08T02:43:05.363Z,943.86
2017-07-08T02:43:33.408Z,943.89
2017-07-08T02:44:01.422Z,943.87
2017-07-08T02:44:29.342Z,943.86
2017-07-08T02:44:57.252Z,943.89
2017-07-08T02:45:25.284Z,943.87
2017-07-08T02:45:53.299Z,943.86
2017-07-08T02:46:21.421Z,943.89
2017-07-08T02:46:49.448Z,943.88
2017-07-08T02:47:17.583Z,943.87
2017-07-08T02:47:45.704Z,943.87
2017-07-08T02:48:13.625Z,943.88
2017-07-08T02:48:41.727Z,943.91
2017-07-08T02:49:09.859Z,943.88
2017-07-08T02:49:37.902Z,943.9
2017-07-08T02:50:05.895Z,943.9
2017-07-08T02:50:33.814Z,943.88
2017-07-08T02:51:01.736Z,943.88
2017-07-08T02:51:29.757Z,943.87
2017-07-08T02:51:57.798Z,943.86
2017-07-08T02:52:25.918Z,943.91
2017-07-08T02:52:54.027Z,943.9
2017-07-08T02:53:22.148Z,943.91
2017-07-08T02:53:50.152Z,943.88
2017-07-08T02:54:18.203Z,943.89
2017-07-08T02:54:46.195Z,943.85
2017-07-08T02:55:14.218Z,943.85
2017-07-08T02:55:42.252Z,943.82
2017-07-08T02:56:10.272Z,943.83
2017-07-08T02:56:38.421Z,943.8
2017-07-08T02:57:06.448Z,943.83
2017-07-08T02:57:34.472Z,943.8
2017-07-08T02:58:02.521Z,943.78
2017-07-08T02:58:30.648Z,943.79
2017-07-08T02:58:58.653Z,943.81
2017-07-08T02:59:26.553Z,943.83
2017-07-08T02:59:54.705Z,943.84
2017-07-08T03:00:22.613Z,943.83
2017-07-08T03:00:50.640Z,943.86
2017-07-08T03:01:18.637Z,943.82
2017-07-08T03:01:46.644Z,943.83
2017-07-08T03:02:14.744Z,943.81
2017-07-08T03:02:42.630Z,943.78
2017-07-08T03:03:10.667Z,943.84
2017-07-08T03:03:38.683Z,943.79
2017-07-08T03:04:06.725Z,943.83
2017-07-08T03:04:34.743Z,943.83
2017-07-08T03:05:02.859Z,943.84
2017-07-08T03:05:30.783Z,943.85
2017-07-08T03:05:58.868Z,943.87
2017-07-08T03:06:26.975Z,943.84
2017-07-08T03:06:55.119Z,943.91
2017-07-08T03:07:23.210Z,943.84
2017-07-08T03:07:51.214Z,943.88
2017-07-08T03:08:19.247Z,943.84
2017-07-08T03:08:47.277Z,943.86
2017-07-08T03:09:15.297Z,943.85
2017-07-08T03:09:43.244Z,943.86
2017-07-08T03:10:11.285Z,943.86
2017-07-08T03:10:39.439Z,943.86
2017-07-08T03:11:07.437Z,943.87
2017-07-08T03:11:35.562Z,943.85
2017-07-08T03:12:03.665Z,943.86
2017-07-08T03:12:31.568Z,943.86
2017-07-08T03:12:59.576Z,943.88
2017-07-08T03:13:27.610Z,943.87
2017-07-08T03:13:55.711Z,943.85
2017-07-08T03:14:23.703Z,943.85
2017-07-08T03:14:51.625Z,943.85
2017-07-08T03:15:19.519Z,943.84
2017-07-08T03:15:47.551Z,943.84
2017-07-08T03:16:15.567Z,943.83
2017-07-08T03:16:43.606Z,943.81
2017-07-08T03:17:11.720Z,943.84
2017-07-08T03:17:39.827Z,943.83
2017-07-08T03:18:07.949Z,943.82
2017-07-08T03:18:36.094Z,943.83
2017-07-08T03:19:04.133Z,943.81
2017-07-08T03:19:32.249Z,943.82
2017-07-08T03:20:00.376Z,943.84
2017-07-08T03:20:28.498Z,943.86
2017-07-08T03:20:56.594Z,943.8
2017-07-08T03:21:24.683Z,943.83
2017-07-08T03:21:52.806Z,943.8
2017-07-08T03:22:20.714Z,943.84
2017-07-08T03:22:48.626Z,943.85
2017-07-08T03:23:16.633Z,943.81
2017-07-08T03:23:44.532Z,943.83
2017-07-08T03:24:12.556Z,943.83
2017-07-08T03:24:40.587Z,943.84
2017-07-08T03:25:08.485Z,943.81
2017-07-08T03:25:36.483Z,943.79
2017-07-08T03:26:04.623Z,943.77
2017-07-08T03:26:32.756Z,943.78
2017-07-08T03:27:00.868Z,943.78
2017-07-08T03:27:28.893Z,943.77
2017-07-08T03:27:56.908Z,943.8
2017-07-08T03:28:24.914Z,943.78
2017-07-08T03:28:53.136Z,943.76
2017-07-08T03:29:21.019Z,943.78
2017-07-08T03:29:49.058Z,943.78
2017-07-08T03:30:16.867Z,943.82
2017-07-08T03:30:44.790Z,943.77
2017-07-08T03:31:12.817Z,943.84
2017-07-08T03:31:40.725Z,943.8
2017-07-08T03:32:08.746Z,943.8
2017-07-08T03:32:36.870Z,943.79
2017-07-08T03:33:04.758Z,943.79
2017-07-08T03:33:32.785Z,943.8
2017-07-08T03:34:00.884Z,943.78
2017-07-08T03:34:28.788Z,943.78
2017-07-08T03:34:56.814Z,943.78
2017-07-08T03:35:24.841Z,943.77
2017-07-08T03:35:52.775Z,943.75
2017-07-08T03:36:20.891Z,943.78
2017-07-08T03:36:49.013Z,943.78
2017-07-08T03:37:17.033Z,943.75
2017-07-08T03:37:45.056Z,943.78
2017-07-08T03:38:13.070Z,943.77
2017-07-08T03:38:41.116Z,943.75
2017-07-08T03:39:09.243Z,943.76
2017-07-08T03:39:37.363Z,943.75
2017-07-08T03:40:05.471Z,943.69
2017-07-08T03:40:33.600Z,943.74
2017-07-08T03:41:01.688Z,943.77
2017-07-08T03:41:29.756Z,943.76
2017-07-08T03:41:57.879Z,943.78
2017-07-08T03:42:25.897Z,943.7
2017-07-08T03:42:53.907Z,943.76
2017-07-08T03:43:22.042Z,943.78
2017-07-08T03:43:50.156Z,943.75
2017-07-08T03:44:18.183Z,943.79
2017-07-08T03:44:46.297Z,943.77
2017-07-08T03:45:14.308Z,943.8
2017-07-08T03:45:42.259Z,943.79
2017-07-08T03:46:10.391Z,943.78
2017-07-08T03:46:38.516Z,943.78
2017-07-08T03:47:06.635Z,943.79
2017-07-08T03:47:34.752Z,943.78
2017-07-08T03:48:02.847Z,943.79
2017-07-08T03:48:30.947Z,943.8
2017-07-08T03:48:59.047Z,943.8
2017-07-08T03:49:27.181Z,943.82
2017-07-08T03:49:55.106Z,943.81
2017-07-08T03:50:23.053Z,943.83
2017-07-08T03:50:51.194Z,943.82
2017-07-08T03:51:19.107Z,943.79
2017-07-08T03:51:47.025Z,943.8
2017-07-08T03:52:14.759Z,943.8
2017-07-08T03:52:42.569Z,943.81
2017-07-08T03:53:10.584Z,943.81
2017-07-08T03:53:38.475Z,943.81
2017-07-08T03:54:06.501Z,943.79
2017-07-08T03:54:34.525Z,943.8
2017-07-08T03:55:02.630Z,943.81
2017-07-08T03:55:30.724Z,943.82
2017-07-08T03:55:58.763Z,943.81
2017-07-08T03:56:26.808Z,943.83
2017-07-08T03:56:54.829Z,943.83
2017-07-08T03:57:22.856Z,943.83
2017-07-08T03:57:51.019Z,943.89
2017-07-08T03:58:19.050Z,943.86
2017-07-08T03:58:47.066Z,943.83
2017-07-08T03:59:15.095Z,943.84
2017-07-08T03:59:43.128Z,943.81
2017-07-08T04:00:11.165Z,943.83
2017-07-08T04:00:39.175Z,943.86
2017-07-08T04:01:07.203Z,943.83
2017-07-08T04:01:35.223Z,943.84
2017-07-08T04:02:03.117Z,943.83
2017-07-08T04:02:31.143Z,943.87
2017-07-08T04:02:59.191Z,943.85
2017-07-08T04:03:27.326Z,943.83
2017-07-08T04:03:55.355Z,943.86
2017-07-08T04:04:23.370Z,943.87
2017-07-08T04:04:51.511Z,943.87
2017-07-08T04:05:19.504Z,943.87
2017-07-08T04:05:47.508Z,943.88
2017-07-08T04:06:15.536Z,943.88
2017-07-08T04:06:43.368Z,943.87
2017-07-08T04:07:11.398Z,943.85
2017-07-08T04:07:39.555Z,943.84
2017-07-08T04:08:07.574Z,943.85
2017-07-08T04:08:35.503Z,943.82
2017-07-08T04:09:03.628Z,943.83
2017-07-08T04:09:31.761Z,943.83
2017-07-08T04:09:59.692Z,943.83
2017-07-08T04:10:27.822Z,943.83
2017-07-08T04:10:55.871Z,943.82
2017-07-08T04:11:23.947Z,943.81
2017-07-08T04:11:52.076Z,943.78
2017-07-08T04:12:19.999Z,943.78
2017-07-08T04:12:48.019Z,943.79
2017-07-08T04:13:16.163Z,943.8
2017-07-08T04:13:44.176Z,943.78
2017-07-08T04:14:12.104Z,943.82
2017-07-08T04:14:40.092Z,943.78
2017-07-08T04:15:08.205Z,943.76
2017-07-08T04:15:36.333Z,943.76
2017-07-08T04:16:04.381Z,943.73
2017-07-08T04:16:32.507Z,943.78
2017-07-08T04:17:00.546Z,943.77
2017-07-08T04:17:28.555Z,943.76
2017-07-08T04:17:56.685Z,943.73
2017-07-08T04:18:24.619Z,943.76
2017-07-08T04:18:52.616Z,943.71
2017-07-08T04:19:20.539Z,943.7
2017-07-08T04:19:48.657Z,943.7
2017-07-08T04:20:16.590Z,943.71
2017-07-08T04:20:44.706Z,943.69
2017-07-08T04:21:12.734Z,943.66
2017-07-08T04:21:40.871Z,943.7
2017-07-08T04:22:08.901Z,943.64
2017-07-08T04:22:36.924Z,943.71
2017-07-08T04:23:04.612Z,943.7
2017-07-08T04:23:32.619Z,943.68
2017-07-08T04:24:00.439Z,943.68
2017-07-08T04:24:28.368Z,943.68
2017-07-08T04:24:56.380Z,943.72
2017-07-08T04:25:24.417Z,943.67
2017-07-08T04:25:52.456Z,943.69
2017-07-08T04:26:20.493Z,943.67
2017-07-08T04:26:48.639Z,943.69
2017-07-08T04:27:16.648Z,943.67
2017-07-08T04:27:44.656Z,943.66
2017-07-08T04:28:12.595Z,943.67
2017-07-08T04:28:40.699Z,943.65
2017-07-08T04:29:08.737Z,943.68
2017-07-08T04:29:36.879Z,943.67
2017-07-08T04:30:04.897Z,943.64
2017-07-08T04:30:32.914Z,943.64
2017-07-08T04:31:01.033Z,943.69
2017-07-08T04:31:29.124Z,943.66
2017-07-08T04:31:57.144Z,943.59
2017-07-08T04:32:25.280Z,943.61
2017-07-08T04:32:53.399Z,943.58
2017-07-08T04:33:21.525Z,943.6
2017-07-08T04:33:49.364Z,943.56
2017-07-08T04:34:17.199Z,943.56
2017-07-08T04:34:45.323Z,943.56
2017-07-08T04:35:13.323Z,943.55
2017-07-08T04:35:41.239Z,943.6
2017-07-08T04:36:09.374Z,943.56
2017-07-08T04:36:37.286Z,943.53
2017-07-08T04:37:05.185Z,943.57
2017-07-08T04:37:33.100Z,943.53
2017-07-08T04:38:01.121Z,943.57
2017-07-08T04:38:29.133Z,943.52
2017-07-08T04:38:57.829Z,943.52
2017-07-08T04:39:25.920Z,943.51
2017-07-08T04:39:53.936Z,943.52
2017-07-08T04:40:21.953Z,943.54
2017-07-08T04:40:49.981Z,943.48
2017-07-08T04:41:17.915Z,943.56
2017-07-08T04:41:45.811Z,943.53
2017-07-08T04:42:13.608Z,943.54
2017-07-08T04:42:41.632Z,943.52
2017-07-08T04:43:09.722Z,943.51
2017-07-08T04:43:37.733Z,943.5
2017-07-08T04:44:05.743Z,943.51
2017-07-08T04:44:33.651Z,943.51
2017-07-08T04:45:01.684Z,943.53
2017-07-08T04:45:29.809Z,943.51
2017-07-08T04:45:57.820Z,943.53
2017-07-08T04:46:25.817Z,943.55
2017-07-08T04:46:53.958Z,943.54
2017-07-08T04:47:22.096Z,943.5
2017-07-08T04:47:50.119Z,943.52
2017-07-08T04:48:18.124Z,943.52
2017-07-08T04:48:46.140Z,943.51
2017-07-08T04:49:14.232Z,943.51
2017-07-08T04:49:42.172Z,943.51
2017-07-08T04:50:10.195Z,943.51
2017-07-08T04:50:38.294Z,943.49
2017-07-08T04:51:06.412Z,943.5
2017-07-08T04:51:34.459Z,943.51
2017-07-08T04:52:02.587Z,943.51
2017-07-08T04:52:30.741Z,943.48
2017-07-08T04:52:58.758Z,943.44
2017-07-08T04:53:26.665Z,943.45
2017-07-08T04:53:54.707Z,943.45
2017-07-08T04:54:22.514Z,943.47
2017-07-08T04:54:50.435Z,943.41
2017-07-08T04:55:18.557Z,943.48
2017-07-08T04:55:46.586Z,943.48
2017-07-08T04:56:14.598Z,943.45
2017-07-08T04:56:42.730Z,943.47
2017-07-08T04:57:10.842Z,943.44
2017-07-08T04:57:38.839Z,943.42
2017-07-08T04:58:06.861Z,943.48
2017-07-08T04:58:34.979Z,943.43
2017-07-08T04:59:03.137Z,943.42
2017-07-08T04:59:31.190Z,943.4
2017-07-08T04:59:59.309Z,943.46
2017-07-08T05:00:27.355Z,943.4
2017-07-08T05:00:55.385Z,943.38
2017-07-08T05:01:23.283Z,943.41
2017-07-08T05:01:51.429Z,943.38
2017-07-08T05:02:19.440Z,943.37
2017-07-08T05:02:47.464Z,943.42
2017-07-08T05:03:15.505Z,943.4
2017-07-08T05:03:43.527Z,943.39
2017-07-08T05:04:11.553Z,943.42
2017-07-08T05:04:39.281Z,943.41
2017-07-08T05:05:07.087Z,943.41
2017-07-08T05:05:34.969Z,943.37
2017-07-08T05:06:03.002Z,943.39
2017-07-08T05:06:31.037Z,943.4
2017-07-08T05:06:58.864Z,943.42
2017-07-08T05:07:26.570Z,943.43
2017-07-08T05:07:54.402Z,943.43
2017-07-08T05:08:22.346Z,943.42
2017-07-08T05:08:50.166Z,943.43
2017-07-08T05:09:18.079Z,943.41
2017-07-08T05:09:46.011Z,943.41
2017-07-08T05:10:14.026Z,943.4
2017-07-08T05:10:42.053Z,943.42
2017-07-08T05:11:09.972Z,943.38
2017-07-08T05:11:37.993Z,943.46
2017-07-08T05:12:05.915Z,943.44
2017-07-08T05:12:34.031Z,943.43
2017-07-08T05:13:02.065Z,943.39
2017-07-08T05:13:30.130Z,943.39
2017-07-08T05:13:58.190Z,943.42
2017-07-08T05:14:25.909Z,943.43
2017-07-08T05:14:53.917Z,943.43
2017-07-08T05:15:21.927Z,943.4
2017-07-08T05:15:49.842Z,943.45
2017-07-08T05:16:17.950Z,943.39
2017-07-08T05:16:46.090Z,943.4
2017-07-08T05:17:14.261Z,943.45
2017-07-08T05:17:42.368Z,943.41
2017-07-08T05:18:10.379Z,943.4
2017-07-08T05:18:38.409Z,943.39
2017-07-08T05:19:06.129Z,943.41
2017-07-08T05:19:34.058Z,943.34
2017-07-08T05:20:02.176Z,943.36
2017-07-08T05:20:30.126Z,943.35
2017-07-08T05:20:58.159Z,943.37
2017-07-08T05:21:26.111Z,943.39
2017-07-08T05:21:54.153Z,943.31
2017-07-08T05:22:21.955Z,943.33
2017-07-08T05:22:49.896Z,943.31
2017-07-08T05:23:17.614Z,943.33
2017-07-08T05:23:45.715Z,943.32
2017-07-08T05:24:13.749Z,943.35
2017-07-08T05:24:41.764Z,943.29
2017-07-08T05:25:09.763Z,943.31
2017-07-08T05:25:37.693Z,943.29
2017-07-08T05:26:05.722Z,943.27
2017-07-08T05:26:33.622Z,943.26
2017-07-08T05:27:01.545Z,943.29
2017-07-08T05:27:29.576Z,943.28
2017-07-08T05:27:57.672Z,943.27
2017-07-08T05:28:25.715Z,943.27
2017-07-08T05:28:53.748Z,943.29
2017-07-08T05:29:21.679Z,943.3
2017-07-08T05:29:49.707Z,943.3
2017-07-08T05:30:17.819Z,943.25
2017-07-08T05:30:45.932Z,943.3
2017-07-08T05:31:13.942Z,943.26
2017-07-08T05:31:42.030Z,943.26
2017-07-08T05:32:10.044Z,943.22
2017-07-08T05:32:37.980Z,943.24
2017-07-08T05:33:06.006Z,943.26
2017-07-08T05:33:34.111Z,943.26
2017-07-08T05:34:02.027Z,943.27
2017-07-08T05:34:30.027Z,943.27
2017-07-08T05:34:58.035Z,943.22
2017-07-08T05:35:26.047Z,943.23
2017-07-08T05:35:54.060Z,943.24
2017-07-08T05:36:22.146Z,943.24
2017-07-08T05:36:50.069Z,943.25
2017-07-08T05:37:18.008Z,943.25
2017-07-08T05:37:45.936Z,943.26
2017-07-08T05:38:13.928Z,943.24
2017-07-08T05:38:41.868Z,943.23
2017-07-08T05:39:09.893Z,943.26
2017-07-08T05:39:37.819Z,943.24
2017-07-08T05:40:05.822Z,943.25
2017-07-08T05:40:33.803Z,943.23
2017-07-08T05:41:01.841Z,943.2
2017-07-08T05:41:29.766Z,943.25
2017-07-08T05:41:57.791Z,943.2
2017-07-08T05:42:25.978Z,943.21
2017-07-08T05:42:54.131Z,943.18
2017-07-08T05:43:22.037Z,943.2
2017-07-08T05:43:50.281Z,943.19
2017-07-08T05:44:18.432Z,943.21
2017-07-08T05:44:46.556Z,943.17
2017-07-08T05:45:14.357Z,943.21
2017-07-08T05:45:42.284Z,943.18
2017-07-08T05:46:10.300Z,943.17
2017-07-08T05:46:38.321Z,943.14
2017-07-08T05:47:06.223Z,943.19
2017-07-08T05:47:34.150Z,943.18
2017-07-08T05:48:02.271Z,943.13
2017-07-08T05:48:30.278Z,943.16
2017-07-08T05:48:58.331Z,943.16
2017-07-08T05:49:26.341Z,943.13
2017-07-08T05:49:54.471Z,943.17
2017-07-08T05:50:22.485Z,943.17
2017-07-08T05:50:50.495Z,943.13